sensor_id;sensor_type;location;lat;lon;timestamp;temperature;humidity
44111;DHT22;29774;52.664;5.074;2022-11-11T00:00:31;15.70;76.80
44111;DHT22;29774;52.664;5.074;2022-11-11T00:02:57;15.60;76.50
44111;DHT22;29774;52.664;5.074;2022-11-11T00:05:24;15.70;76.20
44111;DHT22;29774;52.664;5.074;2022-11-11T00:07:56;15.70;76.20
44111;DHT22;29774;52.664;5.074;2022-11-11T00:10:32;15.70;75.90
44111;DHT22;29774;52.664;5.074;2022-11-11T00:13:02;15.70;75.40
44111;DHT22;29774;52.664;5.074;2022-11-11T00:15:28;15.50;76.70
44111;DHT22;29774;52.664;5.074;2022-11-11T00:17:54;15.70;76.50
44111;DHT22;29774;52.664;5.074;2022-11-11T00:20:39;15.60;76.90
44111;DHT22;29774;52.664;5.074;2022-11-11T00:23:25;15.50;76.80
44111;DHT22;29774;52.664;5.074;2022-11-11T00:26:12;15.60;76.30
44111;DHT22;29774;52.664;5.074;2022-11-11T00:28:38;15.60;76.40
44111;DHT22;29774;52.664;5.074;2022-11-11T00:31:05;15.70;76.20
44111;DHT22;29774;52.664;5.074;2022-11-11T00:33:31;15.60;76.70
44111;DHT22;29774;52.664;5.074;2022-11-11T00:35:57;15.70;76.50
44111;DHT22;29774;52.664;5.074;2022-11-11T00:38:23;15.70;76.40
44111;DHT22;29774;52.664;5.074;2022-11-11T00:41:07;15.50;76.20
44111;DHT22;29774;52.664;5.074;2022-11-11T00:43:32;15.40;77.20
44111;DHT22;29774;52.664;5.074;2022-11-11T00:45:58;15.40;76.90
44111;DHT22;29774;52.664;5.074;2022-11-11T00:48:42;15.20;77.70
44111;DHT22;29774;52.664;5.074;2022-11-11T00:51:26;15.00;77.70
44111;DHT22;29774;52.664;5.074;2022-11-11T00:53:52;15.30;77.80
44111;DHT22;29774;52.664;5.074;2022-11-11T00:56:18;15.30;77.00
44111;DHT22;29774;52.664;5.074;2022-11-11T00:58:44;15.50;77.00
44111;DHT22;29774;52.664;5.074;2022-11-11T01:01:10;15.70;75.30
44111;DHT22;29774;52.664;5.074;2022-11-11T01:03:35;15.70;76.30
44111;DHT22;29774;52.664;5.074;2022-11-11T01:06:02;15.90;75.60
44111;DHT22;29774;52.664;5.074;2022-11-11T01:08:27;15.90;75.60
44111;DHT22;29774;52.664;5.074;2022-11-11T01:10:53;15.80;76.00
44111;DHT22;29774;52.664;5.074;2022-11-11T01:13:22;15.90;75.90
44111;DHT22;29774;52.664;5.074;2022-11-11T01:15:50;15.80;75.70
44111;DHT22;29774;52.664;5.074;2022-11-11T01:18:19;15.80;75.70
44111;DHT22;29774;52.664;5.074;2022-11-11T01:20:44;15.80;75.80
44111;DHT22;29774;52.664;5.074;2022-11-11T01:23:11;15.90;75.50
44111;DHT22;29774;52.664;5.074;2022-11-11T01:25:39;15.70;75.80
44111;DHT22;29774;52.664;5.074;2022-11-11T01:28:05;15.80;75.60
44111;DHT22;29774;52.664;5.074;2022-11-11T01:30:32;15.80;76.40
44111;DHT22;29774;52.664;5.074;2022-11-11T01:32:59;15.70;75.90
44111;DHT22;29774;52.664;5.074;2022-11-11T01:35:25;15.80;75.30
44111;DHT22;29774;52.664;5.074;2022-11-11T01:37:51;15.70;75.90
44111;DHT22;29774;52.664;5.074;2022-11-11T01:40:16;15.80;76.00
44111;DHT22;29774;52.664;5.074;2022-11-11T01:45:55;15.80;75.60
44111;DHT22;29774;52.664;5.074;2022-11-11T01:48:34;15.70;76.00
44111;DHT22;29774;52.664;5.074;2022-11-11T01:53:55;15.60;76.20
44111;DHT22;29774;52.664;5.074;2022-11-11T01:56:21;15.70;76.30
44111;DHT22;29774;52.664;5.074;2022-11-11T01:58:47;15.50;76.70
44111;DHT22;29774;52.664;5.074;2022-11-11T02:01:13;15.70;76.30
44111;DHT22;29774;52.664;5.074;2022-11-11T02:03:40;15.60;75.70
44111;DHT22;29774;52.664;5.074;2022-11-11T02:06:07;15.70;76.80
44111;DHT22;29774;52.664;5.074;2022-11-11T02:08:35;15.60;76.50
44111;DHT22;29774;52.664;5.074;2022-11-11T02:11:08;15.30;76.30
44111;DHT22;29774;52.664;5.074;2022-11-11T02:13:39;15.60;76.40
44111;DHT22;29774;52.664;5.074;2022-11-11T02:16:24;15.30;77.10
44111;DHT22;29774;52.664;5.074;2022-11-11T02:18:50;15.30;77.30
44111;DHT22;29774;52.664;5.074;2022-11-11T02:24:02;15.70;76.10
44111;DHT22;29774;52.664;5.074;2022-11-11T02:26:31;15.60;76.60
44111;DHT22;29774;52.664;5.074;2022-11-11T02:28:58;15.80;75.80
44111;DHT22;29774;52.664;5.074;2022-11-11T02:31:31;15.70;76.20
44111;DHT22;29774;52.664;5.074;2022-11-11T02:33:57;15.70;74.80
44111;DHT22;29774;52.664;5.074;2022-11-11T02:36:23;15.20;76.80
44111;DHT22;29774;52.664;5.074;2022-11-11T02:38:49;15.50;76.50
44111;DHT22;29774;52.664;5.074;2022-11-11T02:41:15;15.70;75.90
44111;DHT22;29774;52.664;5.074;2022-11-11T02:43:59;15.50;75.00
44111;DHT22;29774;52.664;5.074;2022-11-11T02:46:25;15.60;76.50
44111;DHT22;29774;52.664;5.074;2022-11-11T02:48:50;15.70;76.20
44111;DHT22;29774;52.664;5.074;2022-11-11T02:51:16;15.70;76.10
44111;DHT22;29774;52.664;5.074;2022-11-11T02:53:41;15.80;75.70
44111;DHT22;29774;52.664;5.074;2022-11-11T02:56:07;15.70;75.50
44111;DHT22;29774;52.664;5.074;2022-11-11T02:58:32;15.20;75.90
44111;DHT22;29774;52.664;5.074;2022-11-11T03:00:58;15.40;76.50
44111;DHT22;29774;52.664;5.074;2022-11-11T03:03:23;15.70;76.70
44111;DHT22;29774;52.664;5.074;2022-11-11T03:05:49;15.50;76.60
44111;DHT22;29774;52.664;5.074;2022-11-11T03:08:14;15.50;76.30
44111;DHT22;29774;52.664;5.074;2022-11-11T03:10:40;15.70;76.90
44111;DHT22;29774;52.664;5.074;2022-11-11T03:13:06;15.40;76.60
44111;DHT22;29774;52.664;5.074;2022-11-11T03:15:32;15.60;75.20
44111;DHT22;29774;52.664;5.074;2022-11-11T03:17:57;15.70;76.30
44111;DHT22;29774;52.664;5.074;2022-11-11T03:20:23;15.30;76.90
44111;DHT22;29774;52.664;5.074;2022-11-11T03:23:09;15.60;76.30
44111;DHT22;29774;52.664;5.074;2022-11-11T03:25:45;15.60;75.40
44111;DHT22;29774;52.664;5.074;2022-11-11T03:28:16;15.50;76.40
44111;DHT22;29774;52.664;5.074;2022-11-11T03:30:44;15.70;75.70
44111;DHT22;29774;52.664;5.074;2022-11-11T03:33:10;15.70;75.70
44111;DHT22;29774;52.664;5.074;2022-11-11T03:35:36;15.60;76.20
44111;DHT22;29774;52.664;5.074;2022-11-11T03:38:02;15.70;75.30
44111;DHT22;29774;52.664;5.074;2022-11-11T03:40:47;15.80;75.60
44111;DHT22;29774;52.664;5.074;2022-11-11T03:43:14;15.80;75.50
44111;DHT22;29774;52.664;5.074;2022-11-11T03:45:40;15.80;75.50
44111;DHT22;29774;52.664;5.074;2022-11-11T03:48:07;15.90;75.10
44111;DHT22;29774;52.664;5.074;2022-11-11T03:50:33;15.80;75.60
44111;DHT22;29774;52.664;5.074;2022-11-11T03:52:58;15.90;75.30
44111;DHT22;29774;52.664;5.074;2022-11-11T03:55:24;15.60;76.20
44111;DHT22;29774;52.664;5.074;2022-11-11T03:57:49;15.80;76.20
44111;DHT22;29774;52.664;5.074;2022-11-11T04:00:17;15.70;76.10
44111;DHT22;29774;52.664;5.074;2022-11-11T04:02:44;15.80;75.50
44111;DHT22;29774;52.664;5.074;2022-11-11T04:05:28;15.80;75.40
44111;DHT22;29774;52.664;5.074;2022-11-11T04:08:14;15.90;75.30
44111;DHT22;29774;52.664;5.074;2022-11-11T04:11:00;15.70;75.40
44111;DHT22;29774;52.664;5.074;2022-11-11T04:13:28;15.80;75.50
44111;DHT22;29774;52.664;5.074;2022-11-11T04:16:13;15.70;75.30
44111;DHT22;29774;52.664;5.074;2022-11-11T04:18:38;15.40;76.20
44111;DHT22;29774;52.664;5.074;2022-11-11T04:21:23;15.30;75.10
44111;DHT22;29774;52.664;5.074;2022-11-11T04:24:12;15.50;76.00
44111;DHT22;29774;52.664;5.074;2022-11-11T04:26:59;15.70;75.70
44111;DHT22;29774;52.664;5.074;2022-11-11T04:29:25;15.70;76.20
44111;DHT22;29774;52.664;5.074;2022-11-11T04:32:13;15.50;77.00
44111;DHT22;29774;52.664;5.074;2022-11-11T04:35:04;15.70;75.90
44111;DHT22;29774;52.664;5.074;2022-11-11T04:37:32;15.50;76.40
44111;DHT22;29774;52.664;5.074;2022-11-11T04:39:58;15.70;76.30
44111;DHT22;29774;52.664;5.074;2022-11-11T04:42:43;15.60;76.20
44111;DHT22;29774;52.664;5.074;2022-11-11T04:45:12;15.50;75.80
44111;DHT22;29774;52.664;5.074;2022-11-11T04:50:35;15.70;77.80
44111;DHT22;29774;52.664;5.074;2022-11-11T04:53:01;15.60;76.80
44111;DHT22;29774;52.664;5.074;2022-11-11T04:55:27;15.80;75.90
44111;DHT22;29774;52.664;5.074;2022-11-11T04:58:12;15.90;75.50
44111;DHT22;29774;52.664;5.074;2022-11-11T05:00:38;16.00;75.20
44111;DHT22;29774;52.664;5.074;2022-11-11T05:03:04;15.90;75.00
44111;DHT22;29774;52.664;5.074;2022-11-11T05:05:50;15.90;75.10
44111;DHT22;29774;52.664;5.074;2022-11-11T05:08:37;15.90;75.30
44111;DHT22;29774;52.664;5.074;2022-11-11T05:11:25;15.80;75.20
44111;DHT22;29774;52.664;5.074;2022-11-11T05:13:53;15.70;75.50
44111;DHT22;29774;52.664;5.074;2022-11-11T05:16:40;15.70;75.90
44111;DHT22;29774;52.664;5.074;2022-11-11T05:19:25;15.70;75.80
44111;DHT22;29774;52.664;5.074;2022-11-11T05:22:18;15.30;76.90
44111;DHT22;29774;52.664;5.074;2022-11-11T05:24:45;15.40;76.60
44111;DHT22;29774;52.664;5.074;2022-11-11T05:27:29;15.50;76.40
44111;DHT22;29774;52.664;5.074;2022-11-11T05:29:55;15.50;76.30
44111;DHT22;29774;52.664;5.074;2022-11-11T05:32:21;15.60;76.10
44111;DHT22;29774;52.664;5.074;2022-11-11T05:34:47;15.50;76.30
44111;DHT22;29774;52.664;5.074;2022-11-11T05:37:13;15.50;76.30
44111;DHT22;29774;52.664;5.074;2022-11-11T05:39:39;15.40;76.60
44111;DHT22;29774;52.664;5.074;2022-11-11T05:42:05;15.40;76.70
44111;DHT22;29774;52.664;5.074;2022-11-11T05:44:31;15.40;76.60
44111;DHT22;29774;52.664;5.074;2022-11-11T05:46:57;15.40;76.50
44111;DHT22;29774;52.664;5.074;2022-11-11T05:49:23;15.40;76.60
44111;DHT22;29774;52.664;5.074;2022-11-11T05:51:49;15.20;77.50
44111;DHT22;29774;52.664;5.074;2022-11-11T05:54:16;15.20;77.00
44111;DHT22;29774;52.664;5.074;2022-11-11T05:56:41;15.30;76.50
44111;DHT22;29774;52.664;5.074;2022-11-11T05:59:07;15.30;77.00
44111;DHT22;29774;52.664;5.074;2022-11-11T06:01:33;15.30;76.90
44111;DHT22;29774;52.664;5.074;2022-11-11T06:03:59;15.20;77.10
44111;DHT22;29774;52.664;5.074;2022-11-11T06:06:24;15.00;77.00
44111;DHT22;29774;52.664;5.074;2022-11-11T06:08:50;15.10;76.50
44111;DHT22;29774;52.664;5.074;2022-11-11T06:11:15;15.20;77.20
44111;DHT22;29774;52.664;5.074;2022-11-11T06:13:41;15.10;75.90
44111;DHT22;29774;52.664;5.074;2022-11-11T08:08:02;15.60;75.80
44111;DHT22;29774;52.664;5.074;2022-11-11T08:10:27;15.50;76.00
44111;DHT22;29774;52.664;5.074;2022-11-11T08:12:53;15.40;75.40
44111;DHT22;29774;52.664;5.074;2022-11-11T08:15:37;15.20;76.10
44111;DHT22;29774;52.664;5.074;2022-11-11T08:18:03;15.40;76.30
44111;DHT22;29774;52.664;5.074;2022-11-11T08:20:29;15.50;75.60
44111;DHT22;29774;52.664;5.074;2022-11-11T08:22:54;15.60;75.60
44111;DHT22;29774;52.664;5.074;2022-11-11T08:25:22;15.70;74.90
44111;DHT22;29774;52.664;5.074;2022-11-11T08:27:48;15.60;75.70
44111;DHT22;29774;52.664;5.074;2022-11-11T08:30:14;15.60;76.00
44111;DHT22;29774;52.664;5.074;2022-11-11T08:32:39;15.30;76.70
44111;DHT22;29774;52.664;5.074;2022-11-11T08:35:05;15.60;75.60
44111;DHT22;29774;52.664;5.074;2022-11-11T08:37:31;15.60;75.30
44111;DHT22;29774;52.664;5.074;2022-11-11T08:39:56;15.50;75.80
44111;DHT22;29774;52.664;5.074;2022-11-11T08:42:22;15.50;76.10
44111;DHT22;29774;52.664;5.074;2022-11-11T08:44:48;15.50;75.80
44111;DHT22;29774;52.664;5.074;2022-11-11T08:47:13;15.40;75.70
44111;DHT22;29774;52.664;5.074;2022-11-11T08:49:39;15.30;75.30
44111;DHT22;29774;52.664;5.074;2022-11-11T08:52:04;15.50;75.70
44111;DHT22;29774;52.664;5.074;2022-11-11T08:54:30;15.70;74.90
44111;DHT22;29774;52.664;5.074;2022-11-11T08:56:56;15.50;75.80
44111;DHT22;29774;52.664;5.074;2022-11-11T08:59:22;15.60;75.90
44111;DHT22;29774;52.664;5.074;2022-11-11T09:01:48;15.80;75.30
44111;DHT22;29774;52.664;5.074;2022-11-11T09:04:13;15.70;74.90
44111;DHT22;29774;52.664;5.074;2022-11-11T09:06:39;15.30;76.10
44111;DHT22;29774;52.664;5.074;2022-11-11T09:09:07;15.50;76.10
44111;DHT22;29774;52.664;5.074;2022-11-11T09:11:33;15.70;75.10
44111;DHT22;29774;52.664;5.074;2022-11-11T09:14:01;15.70;73.90
44111;DHT22;29774;52.664;5.074;2022-11-11T09:16:26;15.60;75.30
44111;DHT22;29774;52.664;5.074;2022-11-11T09:18:52;15.70;75.40
44111;DHT22;29774;52.664;5.074;2022-11-11T09:21:17;15.70;75.00
44111;DHT22;29774;52.664;5.074;2022-11-11T09:23:43;15.60;75.60
44111;DHT22;29774;52.664;5.074;2022-11-11T09:26:08;15.60;75.80
44111;DHT22;29774;52.664;5.074;2022-11-11T09:28:34;15.20;76.50
44111;DHT22;29774;52.664;5.074;2022-11-11T09:31:00;15.40;75.90
44111;DHT22;29774;52.664;5.074;2022-11-11T09:33:26;15.10;76.50
44111;DHT22;29774;52.664;5.074;2022-11-11T09:35:52;15.40;76.10
44111;DHT22;29774;52.664;5.074;2022-11-11T09:38:18;15.40;75.70
44111;DHT22;29774;52.664;5.074;2022-11-11T09:46:20;14.50;78.50
44111;DHT22;29774;52.664;5.074;2022-11-11T09:52:17;15.40;75.90
44111;DHT22;29774;52.664;5.074;2022-11-11T09:54:51;15.60;75.40
44111;DHT22;29774;52.664;5.074;2022-11-11T10:00:21;15.60;75.50
44111;DHT22;29774;52.664;5.074;2022-11-11T10:02:50;15.70;75.20
44111;DHT22;29774;52.664;5.074;2022-11-11T10:05:38;15.20;76.60
44111;DHT22;29774;52.664;5.074;2022-11-11T10:10:43;15.10;75.00
44111;DHT22;29774;52.664;5.074;2022-11-11T10:13:35;15.40;76.30
44111;DHT22;29774;52.664;5.074;2022-11-11T10:16:08;15.20;76.30
44111;DHT22;29774;52.664;5.074;2022-11-11T10:24:00;15.80;74.90
44111;DHT22;29774;52.664;5.074;2022-11-11T10:26:37;15.60;74.60
44111;DHT22;29774;52.664;5.074;2022-11-11T10:29:13;15.50;75.60
44111;DHT22;29774;52.664;5.074;2022-11-11T10:31:42;15.70;75.10
44111;DHT22;29774;52.664;5.074;2022-11-11T10:34:10;15.50;75.50
44111;DHT22;29774;52.664;5.074;2022-11-11T10:36:48;15.40;73.30
44111;DHT22;29774;52.664;5.074;2022-11-11T10:39:26;15.40;75.40
44111;DHT22;29774;52.664;5.074;2022-11-11T10:41:54;15.70;75.10
44111;DHT22;29774;52.664;5.074;2022-11-11T10:44:31;15.50;74.80
44111;DHT22;29774;52.664;5.074;2022-11-11T10:47:08;15.70;75.30
44111;DHT22;29774;52.664;5.074;2022-11-11T10:49:40;15.40;75.40
44111;DHT22;29774;52.664;5.074;2022-11-11T10:52:15;15.30;76.10
44111;DHT22;29774;52.664;5.074;2022-11-11T10:54:49;15.40;75.90
44111;DHT22;29774;52.664;5.074;2022-11-11T11:00:13;15.50;75.40
44111;DHT22;29774;52.664;5.074;2022-11-11T11:05:33;15.50;75.30
44111;DHT22;29774;52.664;5.074;2022-11-11T11:08:07;15.50;74.70
44111;DHT22;29774;52.664;5.074;2022-11-11T11:10:55;15.30;75.30
44111;DHT22;29774;52.664;5.074;2022-11-11T11:13:47;15.60;76.10
44111;DHT22;29774;52.664;5.074;2022-11-11T11:16:17;15.60;75.40
44111;DHT22;29774;52.664;5.074;2022-11-11T11:21:50;15.70;75.10
44111;DHT22;29774;52.664;5.074;2022-11-11T11:24:24;15.70;75.60
44111;DHT22;29774;52.664;5.074;2022-11-11T11:26:56;15.50;75.40
44111;DHT22;29774;52.664;5.074;2022-11-11T11:29:27;15.50;75.60
44111;DHT22;29774;52.664;5.074;2022-11-11T11:31:53;15.30;76.50
44111;DHT22;29774;52.664;5.074;2022-11-11T11:34:19;15.70;75.30
44111;DHT22;29774;52.664;5.074;2022-11-11T11:37:01;15.70;74.90
44111;DHT22;29774;52.664;5.074;2022-11-11T11:39:37;15.70;74.70
44111;DHT22;29774;52.664;5.074;2022-11-11T11:42:03;15.80;75.30
44111;DHT22;29774;52.664;5.074;2022-11-11T11:44:34;15.80;75.00
44111;DHT22;29774;52.664;5.074;2022-11-11T11:50:06;15.90;74.80
44111;DHT22;29774;52.664;5.074;2022-11-11T11:52:53;15.90;74.40
44111;DHT22;29774;52.664;5.074;2022-11-11T11:55:31;15.70;75.10
44111;DHT22;29774;52.664;5.074;2022-11-11T11:58:31;15.70;75.30
44111;DHT22;29774;52.664;5.074;2022-11-11T12:06:11;15.70;75.40
44111;DHT22;29774;52.664;5.074;2022-11-11T12:17:25;15.70;75.30
44111;DHT22;29774;52.664;5.074;2022-11-11T12:30:55;15.40;75.80
44111;DHT22;29774;52.664;5.074;2022-11-11T12:34:04;15.60;73.80
44111;DHT22;29774;52.664;5.074;2022-11-11T12:42:40;15.00;76.60
44111;DHT22;29774;52.664;5.074;2022-11-11T12:45:20;15.50;75.70
44111;DHT22;29774;52.664;5.074;2022-11-11T12:50:49;15.60;75.40
44111;DHT22;29774;52.664;5.074;2022-11-11T12:58:43;15.60;75.50
44111;DHT22;29774;52.664;5.074;2022-11-11T13:04:48;15.40;76.30
44111;DHT22;29774;52.664;5.074;2022-11-11T13:13:15;15.30;76.80
44111;DHT22;29774;52.664;5.074;2022-11-11T13:15:43;15.60;75.50
44111;DHT22;29774;52.664;5.074;2022-11-11T13:18:13;15.00;76.50
44111;DHT22;29774;52.664;5.074;2022-11-11T13:20:45;15.50;75.60
44111;DHT22;29774;52.664;5.074;2022-11-11T13:23:13;15.20;76.90
44111;DHT22;29774;52.664;5.074;2022-11-11T13:25:46;15.70;75.80
44111;DHT22;29774;52.664;5.074;2022-11-11T13:28:18;15.70;74.80
44111;DHT22;29774;52.664;5.074;2022-11-11T13:31:08;15.00;75.60
44111;DHT22;29774;52.664;5.074;2022-11-11T13:33:42;15.20;74.80
44111;DHT22;29774;52.664;5.074;2022-11-11T13:36:11;14.50;76.90
44111;DHT22;29774;52.664;5.074;2022-11-11T13:38:46;14.90;77.50
44111;DHT22;29774;52.664;5.074;2022-11-11T13:41:12;14.90;77.20
44111;DHT22;29774;52.664;5.074;2022-11-11T13:43:46;14.70;78.50
44111;DHT22;29774;52.664;5.074;2022-11-11T13:46:41;15.10;76.30
44111;DHT22;29774;52.664;5.074;2022-11-11T13:49:20;15.00;77.60
44111;DHT22;29774;52.664;5.074;2022-11-11T13:51:57;14.50;79.30
44111;DHT22;29774;52.664;5.074;2022-11-11T13:54:24;14.60;78.50
44111;DHT22;29774;52.664;5.074;2022-11-11T13:56:52;14.90;78.50
44111;DHT22;29774;52.664;5.074;2022-11-11T13:59:29;15.40;76.10
44111;DHT22;29774;52.664;5.074;2022-11-11T14:02:33;15.40;75.20
44111;DHT22;29774;52.664;5.074;2022-11-11T14:12:42;14.10;78.80
44111;DHT22;29774;52.664;5.074;2022-11-11T14:17:59;15.30;76.60
44111;DHT22;29774;52.664;5.074;2022-11-11T14:20:34;15.40;75.20
44111;DHT22;29774;52.664;5.074;2022-11-11T14:23:21;15.50;75.70
44111;DHT22;29774;52.664;5.074;2022-11-11T14:25:50;15.60;75.70
44111;DHT22;29774;52.664;5.074;2022-11-11T14:28:23;15.40;75.90
44111;DHT22;29774;52.664;5.074;2022-11-11T14:37:32;14.90;78.80
44111;DHT22;29774;52.664;5.074;2022-11-11T14:40:03;14.40;78.50
44111;DHT22;29774;52.664;5.074;2022-11-11T14:45:03;14.60;79.20
44111;DHT22;29774;52.664;5.074;2022-11-11T14:49:55;15.20;75.20
44111;DHT22;29774;52.664;5.074;2022-11-11T14:52:36;14.60;76.60
44111;DHT22;29774;52.664;5.074;2022-11-11T14:55:14;13.90;79.50
44111;DHT22;29774;52.664;5.074;2022-11-11T15:00:47;14.50;79.90
44111;DHT22;29774;52.664;5.074;2022-11-11T15:03:24;13.30;81.40
44111;DHT22;29774;52.664;5.074;2022-11-11T15:08:25;13.20;81.60
44111;DHT22;29774;52.664;5.074;2022-11-11T15:14:03;14.20;80.60
44111;DHT22;29774;52.664;5.074;2022-11-11T15:31:00;12.10;84.70
44111;DHT22;29774;52.664;5.074;2022-11-11T15:36:33;11.50;86.70
44111;DHT22;29774;52.664;5.074;2022-11-11T15:39:05;11.30;87.50
44111;DHT22;29774;52.664;5.074;2022-11-11T15:41:35;11.20;88.10
44111;DHT22;29774;52.664;5.074;2022-11-11T15:44:14;11.10;88.50
44111;DHT22;29774;52.664;5.074;2022-11-11T15:47:00;11.00;88.40
44111;DHT22;29774;52.664;5.074;2022-11-11T15:49:41;10.80;88.80
44111;DHT22;29774;52.664;5.074;2022-11-11T15:52:24;11.20;88.10
44111;DHT22;29774;52.664;5.074;2022-11-11T15:54:52;11.10;88.00
44111;DHT22;29774;52.664;5.074;2022-11-11T15:57:44;10.70;88.70
44111;DHT22;29774;52.664;5.074;2022-11-11T16:00:26;10.60;89.60
44111;DHT22;29774;52.664;5.074;2022-11-11T16:02:53;10.40;89.50
44111;DHT22;29774;52.664;5.074;2022-11-11T16:05:25;10.30;90.00
44111;DHT22;29774;52.664;5.074;2022-11-11T16:07:53;10.40;90.30
44111;DHT22;29774;52.664;5.074;2022-11-11T16:10:24;10.60;89.50
44111;DHT22;29774;52.664;5.074;2022-11-11T16:12:59;10.30;89.80
44111;DHT22;29774;52.664;5.074;2022-11-11T16:15:48;10.00;90.00
44111;DHT22;29774;52.664;5.074;2022-11-11T16:21:29;9.70;90.90
44111;DHT22;29774;52.664;5.074;2022-11-11T16:23:56;9.70;91.20
44111;DHT22;29774;52.664;5.074;2022-11-11T16:26:23;9.60;90.80
44111;DHT22;29774;52.664;5.074;2022-11-11T16:28:54;9.50;91.10
44111;DHT22;29774;52.664;5.074;2022-11-11T16:37:05;9.30;91.20
44111;DHT22;29774;52.664;5.074;2022-11-11T16:39:31;9.10;91.10
44111;DHT22;29774;52.664;5.074;2022-11-11T16:41:59;8.90;91.20
44111;DHT22;29774;52.664;5.074;2022-11-11T16:44:32;9.00;91.30
44111;DHT22;29774;52.664;5.074;2022-11-11T16:47:04;9.00;91.70
44111;DHT22;29774;52.664;5.074;2022-11-11T16:49:33;8.90;91.60
44111;DHT22;29774;52.664;5.074;2022-11-11T16:52:20;9.00;91.90
44111;DHT22;29774;52.664;5.074;2022-11-11T16:54:50;9.10;91.50
44111;DHT22;29774;52.664;5.074;2022-11-11T16:57:21;8.70;90.80
44111;DHT22;29774;52.664;5.074;2022-11-11T16:59:59;8.80;91.20
44111;DHT22;29774;52.664;5.074;2022-11-11T17:02:43;8.60;91.20
44111;DHT22;29774;52.664;5.074;2022-11-11T17:05:09;9.20;92.60
44111;DHT22;29774;52.664;5.074;2022-11-11T17:07:40;9.90;89.80
44111;DHT22;29774;52.664;5.074;2022-11-11T17:10:18;8.90;89.40
44111;DHT22;29774;52.664;5.074;2022-11-11T17:12:44;8.50;90.50
44111;DHT22;29774;52.664;5.074;2022-11-11T17:15:13;8.60;91.70
44111;DHT22;29774;52.664;5.074;2022-11-11T17:17:41;8.70;92.30
44111;DHT22;29774;52.664;5.074;2022-11-11T17:20:19;8.80;92.00
44111;DHT22;29774;52.664;5.074;2022-11-11T17:22:49;8.90;92.00
44111;DHT22;29774;52.664;5.074;2022-11-11T17:25:15;9.00;92.50
44111;DHT22;29774;52.664;5.074;2022-11-11T17:27:41;9.00;92.50
44111;DHT22;29774;52.664;5.074;2022-11-11T17:30:08;8.90;92.50
44111;DHT22;29774;52.664;5.074;2022-11-11T17:32:34;9.00;92.50
44111;DHT22;29774;52.664;5.074;2022-11-11T17:34:59;9.20;92.70
44111;DHT22;29774;52.664;5.074;2022-11-11T17:37:25;9.20;92.60
44111;DHT22;29774;52.664;5.074;2022-11-11T17:39:50;9.30;92.70
44111;DHT22;29774;52.664;5.074;2022-11-11T17:42:16;9.50;92.80
44111;DHT22;29774;52.664;5.074;2022-11-11T17:44:42;9.40;92.50
44111;DHT22;29774;52.664;5.074;2022-11-11T17:47:07;9.60;92.80
44111;DHT22;29774;52.664;5.074;2022-11-11T17:49:51;10.70;93.60
44111;DHT22;29774;52.664;5.074;2022-11-11T17:52:17;10.10;91.00
44111;DHT22;29774;52.664;5.074;2022-11-11T17:54:43;10.30;90.50
44111;DHT22;29774;52.664;5.074;2022-11-11T17:57:08;10.20;90.60
44111;DHT22;29774;52.664;5.074;2022-11-11T17:59:34;12.30;88.70
44111;DHT22;29774;52.664;5.074;2022-11-11T18:01:59;11.60;85.90
44111;DHT22;29774;52.664;5.074;2022-11-11T18:04:26;11.10;87.20
44111;DHT22;29774;52.664;5.074;2022-11-11T18:06:52;10.80;87.50
44111;DHT22;29774;52.664;5.074;2022-11-11T18:09:17;11.10;89.70
44111;DHT22;29774;52.664;5.074;2022-11-11T18:11:43;12.20;83.50
44111;DHT22;29774;52.664;5.074;2022-11-11T18:14:08;11.90;86.30
44111;DHT22;29774;52.664;5.074;2022-11-11T18:16:35;11.50;86.10
44111;DHT22;29774;52.664;5.074;2022-11-11T18:19:01;12.90;84.60
44111;DHT22;29774;52.664;5.074;2022-11-11T18:21:28;13.00;84.40
44111;DHT22;29774;52.664;5.074;2022-11-11T18:23:54;12.00;84.50
44111;DHT22;29774;52.664;5.074;2022-11-11T18:26:20;11.80;86.00
44111;DHT22;29774;52.664;5.074;2022-11-11T18:28:46;12.30;84.10
44111;DHT22;29774;52.664;5.074;2022-11-11T18:31:13;13.50;81.60
44111;DHT22;29774;52.664;5.074;2022-11-11T18:34:16;14.00;79.10
44111;DHT22;29774;52.664;5.074;2022-11-11T18:36:42;13.20;79.20
44111;DHT22;29774;52.664;5.074;2022-11-11T18:39:07;13.50;79.90
44111;DHT22;29774;52.664;5.074;2022-11-11T18:41:33;13.00;80.40
44111;DHT22;29774;52.664;5.074;2022-11-11T18:43:58;12.20;85.40
44111;DHT22;29774;52.664;5.074;2022-11-11T18:46:27;11.50;83.80
44111;DHT22;29774;52.664;5.074;2022-11-11T18:48:58;12.70;84.60
44111;DHT22;29774;52.664;5.074;2022-11-11T18:51:26;12.90;79.20
44111;DHT22;29774;52.664;5.074;2022-11-11T18:53:51;13.70;78.60
44111;DHT22;29774;52.664;5.074;2022-11-11T18:56:22;13.70;79.00
44111;DHT22;29774;52.664;5.074;2022-11-11T18:58:53;13.00;79.30
44111;DHT22;29774;52.664;5.074;2022-11-11T19:01:20;13.10;82.70
44111;DHT22;29774;52.664;5.074;2022-11-11T19:03:57;13.30;80.30
44111;DHT22;29774;52.664;5.074;2022-11-11T19:06:24;13.20;80.80
44111;DHT22;29774;52.664;5.074;2022-11-11T19:08:55;13.60;79.80
44111;DHT22;29774;52.664;5.074;2022-11-11T19:11:21;14.00;78.80
44111;DHT22;29774;52.664;5.074;2022-11-11T19:13:47;14.30;76.00
44111;DHT22;29774;52.664;5.074;2022-11-11T19:16:15;14.10;77.90
44111;DHT22;29774;52.664;5.074;2022-11-11T19:18:57;14.10;78.40
44111;DHT22;29774;52.664;5.074;2022-11-11T19:21:24;14.20;78.40
44111;DHT22;29774;52.664;5.074;2022-11-11T19:23:52;14.00;79.00
44111;DHT22;29774;52.664;5.074;2022-11-11T19:26:18;13.40;77.70
44111;DHT22;29774;52.664;5.074;2022-11-11T19:28:44;12.70;77.30
44111;DHT22;29774;52.664;5.074;2022-11-11T19:31:12;11.90;82.40
44111;DHT22;29774;52.664;5.074;2022-11-11T19:33:40;11.70;81.70
44111;DHT22;29774;52.664;5.074;2022-11-11T19:36:13;11.50;83.80
44111;DHT22;29774;52.664;5.074;2022-11-11T19:38:40;11.40;81.40
44111;DHT22;29774;52.664;5.074;2022-11-11T19:41:09;10.90;83.30
44111;DHT22;29774;52.664;5.074;2022-11-11T19:43:35;10.30;85.00
44111;DHT22;29774;52.664;5.074;2022-11-11T19:46:02;11.70;87.10
44111;DHT22;29774;52.664;5.074;2022-11-11T19:48:28;11.10;82.00
44111;DHT22;29774;52.664;5.074;2022-11-11T19:50:54;11.10;85.10
44111;DHT22;29774;52.664;5.074;2022-11-11T19:53:20;12.30;83.00
44111;DHT22;29774;52.664;5.074;2022-11-11T19:56:00;13.00;81.30
44111;DHT22;29774;52.664;5.074;2022-11-11T19:58:26;12.70;82.60
44111;DHT22;29774;52.664;5.074;2022-11-11T20:00:51;12.70;77.40
44111;DHT22;29774;52.664;5.074;2022-11-11T20:03:17;12.20;80.20
44111;DHT22;29774;52.664;5.074;2022-11-11T20:06:03;12.90;83.10
44111;DHT22;29774;52.664;5.074;2022-11-11T20:08:32;13.80;80.00
44111;DHT22;29774;52.664;5.074;2022-11-11T20:11:06;13.80;79.10
44111;DHT22;29774;52.664;5.074;2022-11-11T20:13:32;13.30;75.10
44111;DHT22;29774;52.664;5.074;2022-11-11T20:16:01;11.60;79.40